sensor_id;sensor_type;location;lat;lon;timestamp;P1;P2;P0
59546;PMS5003;45368;55.002;-1.592;2023-03-20T00:00:43;4;4;
59546;PMS5003;45368;55.002;-1.592;2023-03-20T00:03:15;1;1;
59546;PMS5003;45368;55.002;-1.592;2023-03-20T00:05:43;4;3;
59546;PMS5003;45368;55.002;-1.592;2023-03-20T00:08:10;7;6;
59546;PMS5003;45368;55.002;-1.592;2023-03-20T00:10:38;2;1;
59546;PMS5003;45368;55.002;-1.592;2023-03-20T00:13:10;5;3;
59546;PMS5003;45368;55.002;-1.592;2023-03-20T00:15:40;2;2;
59546;PMS5003;45368;55.002;-1.592;2023-03-20T00:18:11;2;2;
59546;PMS5003;45368;55.002;-1.592;2023-03-20T00:20:41;4;3;
59546;PMS5003;45368;55.002;-1.592;2023-03-20T00:23:09;5;4;
59546;PMS5003;45368;55.002;-1.592;2023-03-20T00:25:36;3;3;
59546;PMS5003;45368;55.002;-1.592;2023-03-20T00:28:14;3;3;
59546;PMS5003;45368;55.002;-1.592;2023-03-20T00:30:56;2;2;
59546;PMS5003;45368;55.002;-1.592;2023-03-20T00:33:23;4;3;
59546;PMS5003;45368;55.002;-1.592;2023-03-20T00:35:49;5;3;
59546;PMS5003;45368;55.002;-1.592;2023-03-20T00:38:16;4;3;
59546;PMS5003;45368;55.002;-1.592;2023-03-20T00:40:43;4;2;
59546;PMS5003;45368;55.002;-1.592;2023-03-20T00:43:10;5;3;
59546;PMS5003;45368;55.002;-1.592;2023-03-20T00:45:39;4;2;
59546;PMS5003;45368;55.002;-1.592;2023-03-20T00:48:07;4;2;
59546;PMS5003;45368;55.002;-1.592;2023-03-20T00:50:38;3;3;
59546;PMS5003;45368;55.002;-1.592;2023-03-20T00:53:08;4;3;
59546;PMS5003;45368;55.002;-1.592;2023-03-20T00:55:35;2;2;
59546;PMS5003;45368;55.002;-1.592;2023-03-20T00:58:04;2;1;
59546;PMS5003;45368;55.002;-1.592;2023-03-20T01:00:35;2;2;
59546;PMS5003;45368;55.002;-1.592;2023-03-20T01:03:10;2;2;
59546;PMS5003;45368;55.002;-1.592;2023-03-20T01:05:40;3;3;
59546;PMS5003;45368;55.002;-1.592;2023-03-20T01:08:11;4;2;
59546;PMS5003;45368;55.002;-1.592;2023-03-20T01:10:40;3;3;
59546;PMS5003;45368;55.002;-1.592;2023-03-20T01:13:12;4;2;
59546;PMS5003;45368;55.002;-1.592;2023-03-20T01:15:44;5;3;
59546;PMS5003;45368;55.002;-1.592;2023-03-20T01:18:11;4;2;
59546;PMS5003;45368;55.002;-1.592;2023-03-20T01:20:39;2;2;
59546;PMS5003;45368;55.002;-1.592;2023-03-20T01:23:07;5;4;
59546;PMS5003;45368;55.002;-1.592;2023-03-20T01:25:35;1;1;
59546;PMS5003;45368;55.002;-1.592;2023-03-20T01:28:02;5;3;
59546;PMS5003;45368;55.002;-1.592;2023-03-20T01:30:36;5;3;
59546;PMS5003;45368;55.002;-1.592;2023-03-20T01:33:08;5;3;
59546;PMS5003;45368;55.002;-1.592;2023-03-20T01:35:40;3;2;
59546;PMS5003;45368;55.002;-1.592;2023-03-20T01:38:10;7;5;
59546;PMS5003;45368;55.002;-1.592;2023-03-20T01:40:43;4;4;
59546;PMS5003;45368;55.002;-1.592;2023-03-20T01:43:18;2;1;
59546;PMS5003;45368;55.002;-1.592;2023-03-20T01:45:51;5;3;
59546;PMS5003;45368;55.002;-1.592;2023-03-20T01:48:25;3;1;
59546;PMS5003;45368;55.002;-1.592;2023-03-20T01:51:02;3;2;
59546;PMS5003;45368;55.002;-1.592;2023-03-20T01:53:30;6;4;
59546;PMS5003;45368;55.002;-1.592;2023-03-20T01:55:57;2;1;
59546;PMS5003;45368;55.002;-1.592;2023-03-20T01:58:27;3;3;
59546;PMS5003;45368;55.002;-1.592;2023-03-20T02:01:00;4;3;
59546;PMS5003;45368;55.002;-1.592;2023-03-20T02:03:28;5;3;
59546;PMS5003;45368;55.002;-1.592;2023-03-20T02:05:55;3;2;
59546;PMS5003;45368;55.002;-1.592;2023-03-20T02:08:25;4;3;
59546;PMS5003;45368;55.002;-1.592;2023-03-20T02:10:54;3;3;
59546;PMS5003;45368;55.002;-1.592;2023-03-20T02:13:23;6;5;
59546;PMS5003;45368;55.002;-1.592;2023-03-20T02:15:56;3;3;
59546;PMS5003;45368;55.002;-1.592;2023-03-20T02:18:26;5;5;
59546;PMS5003;45368;55.002;-1.592;2023-03-20T02:21:01;6;5;
59546;PMS5003;45368;55.002;-1.592;2023-03-20T02:22:30;6;5;
59546;PMS5003;45368;55.002;-1.592;2023-03-20T02:25:20;4;3;
59546;PMS5003;45368;55.002;-1.592;2023-03-20T02:28:14;5;4;
59546;PMS5003;45368;55.002;-1.592;2023-03-20T02:30:58;6;4;
59546;PMS5003;45368;55.002;-1.592;2023-03-20T02:33:43;5;5;
59546;PMS5003;45368;55.002;-1.592;2023-03-20T02:36:58;6;5;
59546;PMS5003;45368;55.002;-1.592;2023-03-20T02:40:06;3;2;
59546;PMS5003;45368;55.002;-1.592;2023-03-20T02:42:43;4;3;
59546;PMS5003;45368;55.002;-1.592;2023-03-20T02:45:17;5;4;
59546;PMS5003;45368;55.002;-1.592;2023-03-20T02:47:55;8;7;
59546;PMS5003;45368;55.002;-1.592;2023-03-20T02:50:35;8;6;
59546;PMS5003;45368;55.002;-1.592;2023-03-20T02:53:12;4;4;
59546;PMS5003;45368;55.002;-1.592;2023-03-20T02:55:52;5;4;
59546;PMS5003;45368;55.002;-1.592;2023-03-20T02:58:25;4;3;
59546;PMS5003;45368;55.002;-1.592;2023-03-20T03:00:56;5;4;
59546;PMS5003;45368;55.002;-1.592;2023-03-20T03:03:31;6;5;
59546;PMS5003;45368;55.002;-1.592;2023-03-20T03:06:03;8;5;
59546;PMS5003;45368;55.002;-1.592;2023-03-20T03:08:35;7;5;
59546;PMS5003;45368;55.002;-1.592;2023-03-20T03:11:07;6;6;
59546;PMS5003;45368;55.002;-1.592;2023-03-20T03:13:36;5;4;
59546;PMS5003;45368;55.002;-1.592;2023-03-20T03:16:08;6;5;
59546;PMS5003;45368;55.002;-1.592;2023-03-20T03:18:40;7;5;
59546;PMS5003;45368;55.002;-1.592;2023-03-20T03:21:09;6;6;
59546;PMS5003;45368;55.002;-1.592;2023-03-20T03:23:42;6;5;
59546;PMS5003;45368;55.002;-1.592;2023-03-20T03:26:13;6;5;
59546;PMS5003;45368;55.002;-1.592;2023-03-20T03:28:44;9;6;
59546;PMS5003;45368;55.002;-1.592;2023-03-20T03:31:15;10;6;
59546;PMS5003;45368;55.002;-1.592;2023-03-20T03:33:45;5;5;
59546;PMS5003;45368;55.002;-1.592;2023-03-20T03:36:21;7;5;
59546;PMS5003;45368;55.002;-1.592;2023-03-20T03:39:00;6;5;
59546;PMS5003;45368;55.002;-1.592;2023-03-20T03:41:33;8;7;
59546;PMS5003;45368;55.002;-1.592;2023-03-20T03:44:10;10;7;
59546;PMS5003;45368;55.002;-1.592;2023-03-20T03:46:44;7;6;
59546;PMS5003;45368;55.002;-1.592;2023-03-20T03:49:18;4;4;
59546;PMS5003;45368;55.002;-1.592;2023-03-20T03:51:49;6;6;
59546;PMS5003;45368;55.002;-1.592;2023-03-20T03:54:21;7;6;
59546;PMS5003;45368;55.002;-1.592;2023-03-20T03:56:51;9;7;
59546;PMS5003;45368;55.002;-1.592;2023-03-20T03:59:23;7;6;
59546;PMS5003;45368;55.002;-1.592;2023-03-20T04:01:55;8;7;
59546;PMS5003;45368;55.002;-1.592;2023-03-20T04:04:23;10;9;
59546;PMS5003;45368;55.002;-1.592;2023-03-20T04:06:53;7;6;
59546;PMS5003;45368;55.002;-1.592;2023-03-20T04:09:20;9;8;
59546;PMS5003;45368;55.002;-1.592;2023-03-20T04:11:48;9;8;
59546;PMS5003;45368;55.002;-1.592;2023-03-20T04:14:17;6;6;
59546;PMS5003;45368;55.002;-1.592;2023-03-20T04:16:45;10;9;
59546;PMS5003;45368;55.002;-1.592;2023-03-20T04:19:12;11;9;
59546;PMS5003;45368;55.002;-1.592;2023-03-20T04:21:39;12;10;
59546;PMS5003;45368;55.002;-1.592;2023-03-20T04:24:07;10;9;
59546;PMS5003;45368;55.002;-1.592;2023-03-20T04:26:35;11;10;
59546;PMS5003;45368;55.002;-1.592;2023-03-20T04:29:02;10;9;
59546;PMS5003;45368;55.002;-1.592;2023-03-20T04:31:29;11;11;
59546;PMS5003;45368;55.002;-1.592;2023-03-20T04:33:57;13;11;
59546;PMS5003;45368;55.002;-1.592;2023-03-20T04:36:24;11;10;
59546;PMS5003;45368;55.002;-1.592;2023-03-20T04:38:51;11;10;
59546;PMS5003;45368;55.002;-1.592;2023-03-20T04:41:18;13;12;
59546;PMS5003;45368;55.002;-1.592;2023-03-20T04:43:45;10;10;
59546;PMS5003;45368;55.002;-1.592;2023-03-20T04:46:12;11;10;
59546;PMS5003;45368;55.002;-1.592;2023-03-20T04:48:39;11;11;
59546;PMS5003;45368;55.002;-1.592;2023-03-20T04:51:06;15;10;
59546;PMS5003;45368;55.002;-1.592;2023-03-20T04:53:34;11;10;
59546;PMS5003;45368;55.002;-1.592;2023-03-20T04:56:01;13;10;
59546;PMS5003;45368;55.002;-1.592;2023-03-20T04:58:28;11;11;
59546;PMS5003;45368;55.002;-1.592;2023-03-20T05:00:55;13;11;
59546;PMS5003;45368;55.002;-1.592;2023-03-20T05:03:22;14;13;
59546;PMS5003;45368;55.002;-1.592;2023-03-20T05:05:50;11;11;
59546;PMS5003;45368;55.002;-1.592;2023-03-20T05:08:17;9;9;
59546;PMS5003;45368;55.002;-1.592;2023-03-20T05:10:44;12;11;
59546;PMS5003;45368;55.002;-1.592;2023-03-20T05:13:12;9;9;
59546;PMS5003;45368;55.002;-1.592;2023-03-20T05:15:38;15;12;
59546;PMS5003;45368;55.002;-1.592;2023-03-20T05:18:10;15;12;
59546;PMS5003;45368;55.002;-1.592;2023-03-20T05:20:38;10;9;
59546;PMS5003;45368;55.002;-1.592;2023-03-20T05:23:06;10;10;
59546;PMS5003;45368;55.002;-1.592;2023-03-20T05:25:33;11;11;
59546;PMS5003;45368;55.002;-1.592;2023-03-20T05:28:01;15;11;
59546;PMS5003;45368;55.002;-1.592;2023-03-20T05:30:29;14;12;
59546;PMS5003;45368;55.002;-1.592;2023-03-20T05:32:56;10;10;
59546;PMS5003;45368;55.002;-1.592;2023-03-20T05:35:23;12;11;
59546;PMS5003;45368;55.002;-1.592;2023-03-20T05:37:50;10;9;
59546;PMS5003;45368;55.002;-1.592;2023-03-20T05:40:18;10;9;
59546;PMS5003;45368;55.002;-1.592;2023-03-20T05:42:45;12;9;
59546;PMS5003;45368;55.002;-1.592;2023-03-20T05:45:13;11;11;
59546;PMS5003;45368;55.002;-1.592;2023-03-20T05:47:40;13;13;
59546;PMS5003;45368;55.002;-1.592;2023-03-20T05:50:08;14;12;
59546;PMS5003;45368;55.002;-1.592;2023-03-20T05:52:36;10;9;
59546;PMS5003;45368;55.002;-1.592;2023-03-20T05:55:04;10;10;
59546;PMS5003;45368;55.002;-1.592;2023-03-20T05:57:33;14;12;
59546;PMS5003;45368;55.002;-1.592;2023-03-20T05:59:59;12;12;
59546;PMS5003;45368;55.002;-1.592;2023-03-20T06:02:26;15;10;
59546;PMS5003;45368;55.002;-1.592;2023-03-20T06:04:53;11;10;
59546;PMS5003;45368;55.002;-1.592;2023-03-20T06:07:20;10;10;
59546;PMS5003;45368;55.002;-1.592;2023-03-20T06:09:48;13;13;
59546;PMS5003;45368;55.002;-1.592;2023-03-20T06:12:15;11;11;
59546;PMS5003;45368;55.002;-1.592;2023-03-20T06:14:42;11;10;
59546;PMS5003;45368;55.002;-1.592;2023-03-20T06:17:09;12;11;
59546;PMS5003;45368;55.002;-1.592;2023-03-20T06:19:36;16;13;
59546;PMS5003;45368;55.002;-1.592;2023-03-20T06:22:04;10;9;
59546;PMS5003;45368;55.002;-1.592;2023-03-20T06:24:31;10;9;
59546;PMS5003;45368;55.002;-1.592;2023-03-20T06:26:59;13;12;
59546;PMS5003;45368;55.002;-1.592;2023-03-20T06:29:27;13;11;
59546;PMS5003;45368;55.002;-1.592;2023-03-20T06:31:54;11;10;
59546;PMS5003;45368;55.002;-1.592;2023-03-20T06:34:21;11;11;
59546;PMS5003;45368;55.002;-1.592;2023-03-20T06:36:48;15;14;
59546;PMS5003;45368;55.002;-1.592;2023-03-20T06:39:15;14;13;
59546;PMS5003;45368;55.002;-1.592;2023-03-20T06:41:43;9;9;
59546;PMS5003;45368;55.002;-1.592;2023-03-20T06:44:11;12;11;
59546;PMS5003;45368;55.002;-1.592;2023-03-20T06:46:38;12;12;
59546;PMS5003;45368;55.002;-1.592;2023-03-20T06:49:05;13;11;
59546;PMS5003;45368;55.002;-1.592;2023-03-20T06:51:33;12;12;
59546;PMS5003;45368;55.002;-1.592;2023-03-20T06:54:00;15;13;
59546;PMS5003;45368;55.002;-1.592;2023-03-20T06:56:27;11;10;
59546;PMS5003;45368;55.002;-1.592;2023-03-20T06:58:54;16;14;
59546;PMS5003;45368;55.002;-1.592;2023-03-20T07:01:21;12;12;
59546;PMS5003;45368;55.002;-1.592;2023-03-20T07:03:48;12;12;
59546;PMS5003;45368;55.002;-1.592;2023-03-20T07:06:16;16;13;
59546;PMS5003;45368;55.002;-1.592;2023-03-20T07:08:43;15;13;
59546;PMS5003;45368;55.002;-1.592;2023-03-20T07:11:10;16;15;
59546;PMS5003;45368;55.002;-1.592;2023-03-20T07:13:38;17;15;
59546;PMS5003;45368;55.002;-1.592;2023-03-20T07:16:07;18;17;
59546;PMS5003;45368;55.002;-1.592;2023-03-20T07:18:34;15;13;
59546;PMS5003;45368;55.002;-1.592;2023-03-20T07:21:02;17;15;
59546;PMS5003;45368;55.002;-1.592;2023-03-20T07:23:31;14;13;
59546;PMS5003;45368;55.002;-1.592;2023-03-20T07:26:00;14;13;
59546;PMS5003;45368;55.002;-1.592;2023-03-20T07:28:27;17;16;
59546;PMS5003;45368;55.002;-1.592;2023-03-20T07:30:55;15;14;
59546;PMS5003;45368;55.002;-1.592;2023-03-20T07:33:22;15;14;
59546;PMS5003;45368;55.002;-1.592;2023-03-20T07:35:51;16;15;
59546;PMS5003;45368;55.002;-1.592;2023-03-20T07:38:20;16;15;
59546;PMS5003;45368;55.002;-1.592;2023-03-20T07:40:48;18;16;
59546;PMS5003;45368;55.002;-1.592;2023-03-20T07:43:16;18;17;
59546;PMS5003;45368;55.002;-1.592;2023-03-20T07:45:43;16;14;
59546;PMS5003;45368;55.002;-1.592;2023-03-20T07:48:10;15;15;
59546;PMS5003;45368;55.002;-1.592;2023-03-20T07:50:38;15;15;
59546;PMS5003;45368;55.002;-1.592;2023-03-20T07:53:11;22;18;
59546;PMS5003;45368;55.002;-1.592;2023-03-20T07:55:38;19;19;
59546;PMS5003;45368;55.002;-1.592;2023-03-20T07:58:06;16;16;
59546;PMS5003;45368;55.002;-1.592;2023-03-20T08:00:33;22;18;
59546;PMS5003;45368;55.002;-1.592;2023-03-20T08:03:00;19;18;
59546;PMS5003;45368;55.002;-1.592;2023-03-20T08:05:28;18;18;
59546;PMS5003;45368;55.002;-1.592;2023-03-20T08:07:56;17;16;
59546;PMS5003;45368;55.002;-1.592;2023-03-20T08:10:23;16;16;
59546;PMS5003;45368;55.002;-1.592;2023-03-20T08:12:51;21;20;
59546;PMS5003;45368;55.002;-1.592;2023-03-20T08:15:18;18;18;
59546;PMS5003;45368;55.002;-1.592;2023-03-20T08:17:45;17;17;
59546;PMS5003;45368;55.002;-1.592;2023-03-20T08:20:13;21;19;
59546;PMS5003;45368;55.002;-1.592;2023-03-20T08:22:42;16;16;
59546;PMS5003;45368;55.002;-1.592;2023-03-20T08:25:10;20;19;
59546;PMS5003;45368;55.002;-1.592;2023-03-20T08:27:38;21;17;
59546;PMS5003;45368;55.002;-1.592;2023-03-20T08:30:07;13;13;
59546;PMS5003;45368;55.002;-1.592;2023-03-20T08:32:35;14;14;
59546;PMS5003;45368;55.002;-1.592;2023-03-20T08:35:03;16;16;
59546;PMS5003;45368;55.002;-1.592;2023-03-20T08:37:31;17;15;
59546;PMS5003;45368;55.002;-1.592;2023-03-20T08:39:58;16;15;
59546;PMS5003;45368;55.002;-1.592;2023-03-20T08:42:26;17;15;
59546;PMS5003;45368;55.002;-1.592;2023-03-20T08:44:53;16;15;
59546;PMS5003;45368;55.002;-1.592;2023-03-20T08:47:19;16;16;
59546;PMS5003;45368;55.002;-1.592;2023-03-20T08:49:47;15;12;
59546;PMS5003;45368;55.002;-1.592;2023-03-20T08:52:14;14;13;
59546;PMS5003;45368;55.002;-1.592;2023-03-20T08:54:41;16;15;
59546;PMS5003;45368;55.002;-1.592;2023-03-20T08:57:08;17;16;
59546;PMS5003;45368;55.002;-1.592;2023-03-20T08:59:36;16;14;
59546;PMS5003;45368;55.002;-1.592;2023-03-20T09:02:03;12;12;
59546;PMS5003;45368;55.002;-1.592;2023-03-20T09:04:31;13;12;
59546;PMS5003;45368;55.002;-1.592;2023-03-20T09:06:58;13;13;
59546;PMS5003;45368;55.002;-1.592;2023-03-20T09:09:24;13;12;
59546;PMS5003;45368;55.002;-1.592;2023-03-20T09:11:52;17;15;
59546;PMS5003;45368;55.002;-1.592;2023-03-20T09:14:19;12;12;
59546;PMS5003;45368;55.002;-1.592;2023-03-20T09:16:47;16;16;
59546;PMS5003;45368;55.002;-1.592;2023-03-20T09:19:14;15;13;
59546;PMS5003;45368;55.002;-1.592;2023-03-20T09:21:42;12;11;
59546;PMS5003;45368;55.002;-1.592;2023-03-20T09:24:10;12;12;
59546;PMS5003;45368;55.002;-1.592;2023-03-20T09:26:37;12;11;
59546;PMS5003;45368;55.002;-1.592;2023-03-20T09:29:10;11;11;
59546;PMS5003;45368;55.002;-1.592;2023-03-20T09:31:37;14;14;
59546;PMS5003;45368;55.002;-1.592;2023-03-20T09:34:04;14;13;
59546;PMS5003;45368;55.002;-1.592;2023-03-20T09:36:33;14;14;
59546;PMS5003;45368;55.002;-1.592;2023-03-20T09:39:00;11;10;
59546;PMS5003;45368;55.002;-1.592;2023-03-20T09:41:29;14;13;
59546;PMS5003;45368;55.002;-1.592;2023-03-20T09:43:59;15;15;
59546;PMS5003;45368;55.002;-1.592;2023-03-20T09:46:42;14;13;
59546;PMS5003;45368;55.002;-1.592;2023-03-20T09:49:28;12;12;
59546;PMS5003;45368;55.002;-1.592;2023-03-20T09:52:08;16;14;
59546;PMS5003;45368;55.002;-1.592;2023-03-20T09:54:44;12;11;
59546;PMS5003;45368;55.002;-1.592;2023-03-20T09:57:16;6;5;
59546;PMS5003;45368;55.002;-1.592;2023-03-20T09:59:47;11;10;
59546;PMS5003;45368;55.002;-1.592;2023-03-20T10:02:22;7;7;
59546;PMS5003;45368;55.002;-1.592;2023-03-20T10:05:01;9;9;
59546;PMS5003;45368;55.002;-1.592;2023-03-20T10:07:30;9;8;
59546;PMS5003;45368;55.002;-1.592;2023-03-20T10:09:57;10;8;
59546;PMS5003;45368;55.002;-1.592;2023-03-20T10:12:28;10;10;
59546;PMS5003;45368;55.002;-1.592;2023-03-20T10:15:11;8;7;
59546;PMS5003;45368;55.002;-1.592;2023-03-20T10:17:49;13;13;
59546;PMS5003;45368;55.002;-1.592;2023-03-20T10:20:25;8;8;
59546;PMS5003;45368;55.002;-1.592;2023-03-20T10:23:00;11;11;
59546;PMS5003;45368;55.002;-1.592;2023-03-20T10:25:33;18;15;
59546;PMS5003;45368;55.002;-1.592;2023-03-20T10:28:08;13;12;
59546;PMS5003;45368;55.002;-1.592;2023-03-20T10:30:43;11;11;
59546;PMS5003;45368;55.002;-1.592;2023-03-20T10:33:23;11;11;
59546;PMS5003;45368;55.002;-1.592;2023-03-20T10:36:06;12;11;
59546;PMS5003;45368;55.002;-1.592;2023-03-20T10:38:43;13;13;
59546;PMS5003;45368;55.002;-1.592;2023-03-20T10:41:16;11;11;
59546;PMS5003;45368;55.002;-1.592;2023-03-20T10:43:46;10;10;
59546;PMS5003;45368;55.002;-1.592;2023-03-20T10:46:17;12;11;
59546;PMS5003;45368;55.002;-1.592;2023-03-20T10:48:49;11;9;
59546;PMS5003;45368;55.002;-1.592;2023-03-20T10:51:23;10;9;
59546;PMS5003;45368;55.002;-1.592;2023-03-20T10:54:03;12;12;
59546;PMS5003;45368;55.002;-1.592;2023-03-20T10:56:37;10;8;
59546;PMS5003;45368;55.002;-1.592;2023-03-20T10:59:09;9;9;
59546;PMS5003;45368;55.002;-1.592;2023-03-20T11:01:44;13;13;
59546;PMS5003;45368;55.002;-1.592;2023-03-20T11:04:12;9;8;
59546;PMS5003;45368;55.002;-1.592;2023-03-20T11:06:40;13;12;
59546;PMS5003;45368;55.002;-1.592;2023-03-20T11:09:16;14;13;
59546;PMS5003;45368;55.002;-1.592;2023-03-20T11:11:45;14;13;
59546;PMS5003;45368;55.002;-1.592;2023-03-20T11:14:15;12;10;
59546;PMS5003;45368;55.002;-1.592;2023-03-20T11:16:46;11;11;
59546;PMS5003;45368;55.002;-1.592;2023-03-20T11:19:14;12;12;
59546;PMS5003;45368;55.002;-1.592;2023-03-20T11:21:44;10;9;
59546;PMS5003;45368;55.002;-1.592;2023-03-20T11:24:22;11;11;
59546;PMS5003;45368;55.002;-1.592;2023-03-20T11:26:53;11;11;
59546;PMS5003;45368;55.002;-1.592;2023-03-20T11:29:30;10;10;
59546;PMS5003;45368;55.002;-1.592;2023-03-20T11:32:02;11;10;
59546;PMS5003;45368;55.002;-1.592;2023-03-20T11:34:35;12;11;
59546;PMS5003;45368;55.002;-1.592;2023-03-20T11:37:06;14;11;
59546;PMS5003;45368;55.002;-1.592;2023-03-20T11:39:55;9;9;
59546;PMS5003;45368;55.002;-1.592;2023-03-20T11:42:24;7;7;
59546;PMS5003;45368;55.002;-1.592;2023-03-20T11:44:57;10;8;
59546;PMS5003;45368;55.002;-1.592;2023-03-20T11:47:26;7;7;
59546;PMS5003;45368;55.002;-1.592;2023-03-20T11:49:58;7;7;
59546;PMS5003;45368;55.002;-1.592;2023-03-20T11:52:27;7;7;
59546;PMS5003;45368;55.002;-1.592;2023-03-20T11:54:57;10;9;
59546;PMS5003;45368;55.002;-1.592;2023-03-20T11:57:30;9;8;
59546;PMS5003;45368;55.002;-1.592;2023-03-20T12:00:03;10;10;
59546;PMS5003;45368;55.002;-1.592;2023-03-20T12:02:39;10;9;
59546;PMS5003;45368;55.002;-1.592;2023-03-20T12:05:16;12;10;
59546;PMS5003;45368;55.002;-1.592;2023-03-20T12:07:45;7;7;
59546;PMS5003;45368;55.002;-1.592;2023-03-20T12:10:17;8;8;
59546;PMS5003;45368;55.002;-1.592;2023-03-20T12:12:46;10;10;
59546;PMS5003;45368;55.002;-1.592;2023-03-20T12:15:19;9;8;
59546;PMS5003;45368;55.002;-1.592;2023-03-20T12:17:51;13;13;
59546;PMS5003;45368;55.002;-1.592;2023-03-20T12:20:24;9;8;
59546;PMS5003;45368;55.002;-1.592;2023-03-20T12:23:02;9;9;
59546;PMS5003;45368;55.002;-1.592;2023-03-20T12:25:41;12;12;
59546;PMS5003;45368;55.002;-1.592;2023-03-20T12:28:17;15;15;
59546;PMS5003;45368;55.002;-1.592;2023-03-20T12:30:55;19;17;
59546;PMS5003;45368;55.002;-1.592;2023-03-20T12:33:33;16;15;
59546;PMS5003;45368;55.002;-1.592;2023-03-20T12:36:11;13;12;
59546;PMS5003;45368;55.002;-1.592;2023-03-20T12:38:40;14;14;
59546;PMS5003;45368;55.002;-1.592;2023-03-20T12:41:10;15;14;
59546;PMS5003;45368;55.002;-1.592;2023-03-20T12:43:42;17;14;
59546;PMS5003;45368;55.002;-1.592;2023-03-20T12:46:23;19;18;
59546;PMS5003;45368;55.002;-1.592;2023-03-20T12:48:58;17;15;
59546;PMS5003;45368;55.002;-1.592;2023-03-20T12:51:36;13;12;
59546;PMS5003;45368;55.002;-1.592;2023-03-20T12:54:15;11;11;
59546;PMS5003;45368;55.002;-1.592;2023-03-20T12:56:56;13;10;
59546;PMS5003;45368;55.002;-1.592;2023-03-20T12:59:33;12;11;
59546;PMS5003;45368;55.002;-1.592;2023-03-20T13:02:14;15;15;
59546;PMS5003;45368;55.002;-1.592;2023-03-20T13:04:52;17;16;
59546;PMS5003;45368;55.002;-1.592;2023-03-20T13:07:33;18;16;
59546;PMS5003;45368;55.002;-1.592;2023-03-20T13:10:16;18;16;
59546;PMS5003;45368;55.002;-1.592;2023-03-20T13:12:49;15;14;
59546;PMS5003;45368;55.002;-1.592;2023-03-20T13:15:33;13;13;
59546;PMS5003;45368;55.002;-1.592;2023-03-20T13:18:15;14;14;
59546;PMS5003;45368;55.002;-1.592;2023-03-20T13:20:49;15;14;
59546;PMS5003;45368;55.002;-1.592;2023-03-20T13:23:21;15;15;
59546;PMS5003;45368;55.002;-1.592;2023-03-20T13:25:56;13;12;
59546;PMS5003;45368;55.002;-1.592;2023-03-20T13:28:32;11;10;
59546;PMS5003;45368;55.002;-1.592;2023-03-20T13:31:12;11;10;
59546;PMS5003;45368;55.002;-1.592;2023-03-20T13:33:46;12;12;
59546;PMS5003;45368;55.002;-1.592;2023-03-20T13:36:24;15;14;
59546;PMS5003;45368;55.002;-1.592;2023-03-20T13:39:05;12;12;
59546;PMS5003;45368;55.002;-1.592;2023-03-20T13:41:40;15;14;
59546;PMS5003;45368;55.002;-1.592;2023-03-20T13:44:09;11;10;
59546;PMS5003;45368;55.002;-1.592;2023-03-20T13:46:42;10;10;
59546;PMS5003;45368;55.002;-1.592;2023-03-20T13:49:13;11;10;
59546;PMS5003;45368;55.002;-1.592;2023-03-20T13:51:46;12;11;
59546;PMS5003;45368;55.002;-1.592;2023-03-20T13:54:25;13;12;
59546;PMS5003;45368;55.002;-1.592;2023-03-20T13:57:08;10;10;
59546;PMS5003;45368;55.002;-1.592;2023-03-20T13:59:45;11;10;
59546;PMS5003;45368;55.002;-1.592;2023-03-20T14:02:32;12;11;
59546;PMS5003;45368;55.002;-1.592;2023-03-20T14:05:09;11;10;
59546;PMS5003;45368;55.002;-1.592;2023-03-20T14:07:41;11;11;
59546;PMS5003;45368;55.002;-1.592;2023-03-20T14:10:41;14;13;
59546;PMS5003;45368;55.002;-1.592;2023-03-20T14:13:11;11;10;
59546;PMS5003;45368;55.002;-1.592;2023-03-20T14:15:44;11;11;
59546;PMS5003;45368;55.002;-1.592;2023-03-20T14:18:17;10;9;
59546;PMS5003;45368;55.002;-1.592;2023-03-20T14:20:51;10;10;
59546;PMS5003;45368;55.002;-1.592;2023-03-20T14:23:31;13;12;
59546;PMS5003;45368;55.002;-1.592;2023-03-20T14:26:03;11;11;
59546;PMS5003;45368;55.002;-1.592;2023-03-20T14:26:07;11;11;
59546;PMS5003;45368;55.002;-1.592;2023-03-20T14:28:51;11;10;
59546;PMS5003;45368;55.002;-1.592;2023-03-20T14:31:22;15;14;
59546;PMS5003;45368;55.002;-1.592;2023-03-20T14:33:57;14;13;
59546;PMS5003;45368;55.002;-1.592;2023-03-20T14:36:27;12;12;
59546;PMS5003;45368;55.002;-1.592;2023-03-20T14:38:58;12;11;
59546;PMS5003;45368;55.002;-1.592;2023-03-20T14:41:38;12;12;
59546;PMS5003;45368;55.002;-1.592;2023-03-20T14:44:18;12;12;
59546;PMS5003;45368;55.002;-1.592;2023-03-20T14:46:51;13;12;
59546;PMS5003;45368;55.002;-1.592;2023-03-20T14:49:29;12;11;
59546;PMS5003;45368;55.002;-1.592;2023-03-20T14:52:12;10;10;
59546;PMS5003;45368;55.002;-1.592;2023-03-20T14:54:51;15;15;
59546;PMS5003;45368;55.002;-1.592;2023-03-20T14:57:24;18;16;
59546;PMS5003;45368;55.002;-1.592;2023-03-20T14:59:56;16;15;
59546;PMS5003;45368;55.002;-1.592;2023-03-20T15:02:24;16;16;
59546;PMS5003;45368;55.002;-1.592;2023-03-20T15:04:54;21;19;
59546;PMS5003;45368;55.002;-1.592;2023-03-20T15:07:23;17;16;
59546;PMS5003;45368;55.002;-1.592;2023-03-20T15:09:53;15;14;
59546;PMS5003;45368;55.002;-1.592;2023-03-20T15:12:23;15;14;
59546;PMS5003;45368;55.002;-1.592;2023-03-20T15:14:52;19;17;
59546;PMS5003;45368;55.002;-1.592;2023-03-20T15:17:23;17;16;
59546;PMS5003;45368;55.002;-1.592;2023-03-20T15:19:57;17;16;
59546;PMS5003;45368;55.002;-1.592;2023-03-20T15:22:27;13;13;
59546;PMS5003;45368;55.002;-1.592;2023-03-20T15:24:55;14;13;
59546;PMS5003;45368;55.002;-1.592;2023-03-20T15:27:23;14;13;
59546;PMS5003;45368;55.002;-1.592;2023-03-20T15:29:52;12;12;
59546;PMS5003;45368;55.002;-1.592;2023-03-20T15:32:21;12;12;
59546;PMS5003;45368;55.002;-1.592;2023-03-20T15:34:49;12;11;
59546;PMS5003;45368;55.002;-1.592;2023-03-20T15:37:18;16;15;
59546;PMS5003;45368;55.002;-1.592;2023-03-20T15:39:49;15;14;
59546;PMS5003;45368;55.002;-1.592;2023-03-20T15:42:18;14;14;
59546;PMS5003;45368;55.002;-1.592;2023-03-20T15:44:47;15;13;
59546;PMS5003;45368;55.002;-1.592;2023-03-20T15:47:15;19;19;
59546;PMS5003;45368;55.002;-1.592;2023-03-20T15:49:47;12;12;
59546;PMS5003;45368;55.002;-1.592;2023-03-20T15:52:17;10;10;
59546;PMS5003;45368;55.002;-1.592;2023-03-20T15:54:50;11;10;
59546;PMS5003;45368;55.002;-1.592;2023-03-20T15:57:23;15;13;
59546;PMS5003;45368;55.002;-1.592;2023-03-20T15:59:56;15;15;
59546;PMS5003;45368;55.002;-1.592;2023-03-20T16:02:25;12;11;
59546;PMS5003;45368;55.002;-1.592;2023-03-20T16:04:55;24;23;
59546;PMS5003;45368;55.002;-1.592;2023-03-20T16:07:26;36;34;
59546;PMS5003;45368;55.002;-1.592;2023-03-20T16:09:55;35;34;
59546;PMS5003;45368;55.002;-1.592;2023-03-20T16:12:23;48;42;
59546;PMS5003;45368;55.002;-1.592;2023-03-20T16:14:52;39;35;
59546;PMS5003;45368;55.002;-1.592;2023-03-20T16:17:20;39;36;
59546;PMS5003;45368;55.002;-1.592;2023-03-20T16:19:49;42;38;
59546;PMS5003;45368;55.002;-1.592;2023-03-20T16:22:19;27;26;
59546;PMS5003;45368;55.002;-1.592;2023-03-20T16:24:50;7;7;
59546;PMS5003;45368;55.002;-1.592;2023-03-20T16:27:23;2;2;
59546;PMS5003;45368;55.002;-1.592;2023-03-20T16:29:53;2;0;
59546;PMS5003;45368;55.002;-1.592;2023-03-20T16:32:24;1;1;
59546;PMS5003;45368;55.002;-1.592;2023-03-20T16:34:58;0;0;
59546;PMS5003;45368;55.002;-1.592;2023-03-20T16:37:30;1;1;